Weather at Kelowna International Airport

Public forecast

Using degrees Celsius for public forecast. Weather courtesy of forecast.io.

Current aviation weather report (METAR) for Kelowna International Airport

2024/06/16 21:00 (retrieved 54 minutes ago)

CYLW 162100Z AUTO 21008KT 9SM -RA OVC050 11/08 A2996 RMK PCPN 05MM PAST HR SLP156

Aviation forecast (TAF) for Kelowna International Airport

2024/06/16 19:42 (retrieved 2 hours ago)

TAF CYLW 161840Z 1619/1707 18010KT P6SM BKN040 TEMPO 1619/1707 P6SM -SHRA BECMG 1700/1702 35008KT RMK FCST BASED ON AUTO OBS NXT FCST BY 170100Z